Time;durP1;ratioP1;P1;durP2;ratioP2;P2;SDS_P1;SDS_P2;PMS_P1;PMS_P2;Temp;Humidity;BMP_temperature;BMP_pressure;BME280_temperature;BME280_humidity;BME280_pressure;Samples;Min_cycle;Max_cycle;Signal;HPM_P1;HPM_P2
2021/04/30 00:01:08;;;;;;;;;;;5.70;99.90;;;;;;10444574;28;20365;-72
2021/04/30 00:06:09;;;;;;;;;;;5.80;99.90;;;;;;10443324;28;19964;-72
2021/04/30 00:11:11;;;;;;;;;;;5.80;99.90;;;;;;10445156;28;20039;-71
2021/04/30 00:16:12;;;;;;;;;;;5.70;99.90;;;;;;10444704;28;20447;-71
2021/04/30 00:21:13;;;;;;;;;;;5.70;99.90;;;;;;10444697;28;20080;-72
2021/04/30 00:26:15;;;;;;;;;;;5.60;99.90;;;;;;10444992;28;20024;-71
2021/04/30 00:31:19;;;;;;;;;;;5.60;99.90;;;;;;10444329;28;19975;-71
2021/04/30 00:36:20;;;;;;;;;;;5.60;99.90;;;;;;10444481;28;20336;-71
2021/04/30 00:41:21;;;;;;;;;;;5.50;99.90;;;;;;10442771;28;19968;-71
2021/04/30 00:46:31;;;;;;;;;;;5.50;99.90;;;;;;10444935;28;20019;-70
2021/04/30 00:51:33;;;;;;;;;;;5.50;99.90;;;;;;10448727;28;19947;-72
2021/04/30 00:56:34;;;;;;;;;;;5.40;99.90;;;;;;10451611;28;19928;-71
2021/04/30 01:01:36;;;;;;;;;;;5.40;99.90;;;;;;10451175;28;19981;-72
2021/04/30 01:06:38;;;;;;;;;;;5.40;99.90;;;;;;10451049;28;20296;-71
2021/04/30 01:11:39;;;;;;;;;;;5.30;99.90;;;;;;10450423;28;20378;-71
2021/04/30 01:16:40;;;;;;;;;;;5.20;99.90;;;;;;10451301;28;20011;-71
2021/04/30 01:21:43;;;;;;;;;;;5.10;99.90;;;;;;10450589;28;19995;-71
2021/04/30 01:26:44;;;;;;;;;;;5.00;99.90;;;;;;10451419;28;19972;-71
2021/04/30 01:31:46;;;;;;;;;;;4.90;99.90;;;;;;10450850;28;20377;-72
2021/04/30 01:36:48;;;;;;;;;;;4.90;99.90;;;;;;10451912;28;20002;-71
2021/04/30 01:41:49;;;;;;;;;;;4.70;99.90;;;;;;10449433;28;20160;-72
2021/04/30 01:46:51;;;;;;;;;;;4.70;99.90;;;;;;10449604;28;19929;-70
2021/04/30 01:51:53;;;;;;;;;;;4.50;99.90;;;;;;10450349;28;19936;-71
2021/04/30 01:56:55;;;;;;;;;;;4.30;99.90;;;;;;10441498;28;20281;-71
2021/04/30 02:01:57;;;;;;;;;;;4.20;99.90;;;;;;10451030;28;20012;-71
2021/04/30 02:06:59;;;;;;;;;;;4.10;99.90;;;;;;10456583;28;20289;-71
2021/04/30 02:12:00;;;;;;;;;;;4.10;99.90;;;;;;10456219;28;20211;-72
2021/04/30 02:17:02;;;;;;;;;;;4.10;99.90;;;;;;10456353;28;19925;-71
2021/04/30 02:22:04;;;;;;;;;;;4.10;99.90;;;;;;10455803;28;19929;-72
2021/04/30 02:27:06;;;;;;;;;;;4.00;99.90;;;;;;10455512;28;19963;-71
2021/04/30 02:32:07;;;;;;;;;;;3.90;99.90;;;;;;10455037;28;19972;-71
2021/04/30 02:37:10;;;;;;;;;;;3.80;99.90;;;;;;10455154;28;20413;-71
2021/04/30 02:42:11;;;;;;;;;;;3.70;99.90;;;;;;10455136;28;20007;-72
2021/04/30 02:47:13;;;;;;;;;;;3.70;99.90;;;;;;10454626;28;19967;-71
2021/04/30 02:52:15;;;;;;;;;;;3.60;99.90;;;;;;10454900;28;20020;-71
2021/04/30 02:57:17;;;;;;;;;;;3.60;99.90;;;;;;10454429;28;20066;-71
2021/04/30 03:02:18;;;;;;;;;;;3.50;99.90;;;;;;10452467;28;19976;-72
2021/04/30 03:07:20;;;;;;;;;;;3.40;99.90;;;;;;10449322;28;20435;-71
2021/04/30 03:12:21;;;;;;;;;;;3.60;99.90;;;;;;10446491;28;20012;-71
2021/04/30 03:17:22;;;;;;;;;;;3.70;99.90;;;;;;10447149;28;20326;-72
2021/04/30 03:22:24;;;;;;;;;;;3.80;99.90;;;;;;10445147;28;20047;-72
2021/04/30 03:27:27;;;;;;;;;;;4.00;99.90;;;;;;10445568;28;19971;-72
2021/04/30 03:32:28;;;;;;;;;;;4.20;99.90;;;;;;10446655;28;20629;-71
2021/04/30 03:37:30;;;;;;;;;;;4.30;99.90;;;;;;10445342;28;20359;-72
2021/04/30 03:42:31;;;;;;;;;;;4.40;99.90;;;;;;10446572;28;20007;-72
2021/04/30 03:47:33;;;;;;;;;;;4.40;99.90;;;;;;10445820;28;20087;-71
2021/04/30 03:52:34;;;;;;;;;;;4.40;99.90;;;;;;10445724;28;19925;-71
2021/04/30 03:57:35;;;;;;;;;;;4.30;99.90;;;;;;10444512;28;20451;-72
2021/04/30 04:02:37;;;;;;;;;;;4.20;99.90;;;;;;10444542;28;20011;-71
2021/04/30 04:07:38;;;;;;;;;;;4.20;99.90;;;;;;10445184;28;20373;-72
2021/04/30 04:12:40;;;;;;;;;;;4.30;99.90;;;;;;10444631;28;20389;-73
2021/04/30 04:17:41;;;;;;;;;;;4.40;99.90;;;;;;10445413;28;19976;-71
2021/04/30 04:22:43;;;;;;;;;;;4.40;99.90;;;;;;10444846;28;19924;-71
2021/04/30 04:27:44;;;;;;;;;;;4.60;99.90;;;;;;10453151;28;19925;-72
2021/04/30 04:32:47;;;;;;;;;;;4.60;99.90;;;;;;10453154;28;20012;-71
2021/04/30 04:37:48;;;;;;;;;;;4.50;99.90;;;;;;10453183;28;19978;-72
2021/04/30 04:42:49;;;;;;;;;;;4.50;99.90;;;;;;10451444;28;20019;-71
2021/04/30 04:47:51;;;;;;;;;;;4.70;99.90;;;;;;10451994;28;20019;-72
2021/04/30 04:52:52;;;;;;;;;;;4.90;99.90;;;;;;10452849;28;20002;-71
2021/04/30 04:57:53;;;;;;;;;;;5.30;99.90;;;;;;10451080;28;20444;-72
2021/04/30 05:02:55;;;;;;;;;;;5.20;99.90;;;;;;10451630;28;19929;-71
2021/04/30 05:07:56;;;;;;;;;;;5.40;99.90;;;;;;10450697;28;19947;-72
2021/04/30 05:12:58;;;;;;;;;;;5.60;99.90;;;;;;10450841;28;20422;-72
2021/04/30 05:18:00;;;;;;;;;;;5.70;99.90;;;;;;10450775;28;20015;-72
2021/04/30 05:23:01;;;;;;;;;;;5.70;99.90;;;;;;10450048;28;20211;-72
2021/04/30 05:28:02;;;;;;;;;;;5.60;99.90;;;;;;10450136;28;20008;-71
2021/04/30 05:33:04;;;;;;;;;;;5.80;99.90;;;;;;10449976;28;19986;-71
2021/04/30 05:38:05;;;;;;;;;;;6.10;99.90;;;;;;10449376;28;20366;-72
2021/04/30 05:43:07;;;;;;;;;;;6.20;99.90;;;;;;10449806;28;19924;-72
2021/04/30 05:48:08;;;;;;;;;;;6.40;99.90;;;;;;10448172;28;20425;-72
2021/04/30 05:53:09;;;;;;;;;;;6.60;99.90;;;;;;10449564;28;20400;-72
2021/04/30 05:58:11;;;;;;;;;;;7.00;99.90;;;;;;10449627;28;20012;-72
2021/04/30 06:03:12;;;;;;;;;;;7.60;99.90;;;;;;10448898;28;20024;-72
2021/04/30 06:08:13;;;;;;;;;;;7.80;99.90;;;;;;10424107;28;19925;-72
2021/04/30 06:13:15;;;;;;;;;;;7.60;99.90;;;;;;10437911;28;19971;-72
2021/04/30 06:18:16;;;;;;;;;;;7.50;99.90;;;;;;10448891;28;20388;-73
2021/04/30 06:23:17;;;;;;;;;;;7.40;99.90;;;;;;10448507;28;19971;-73
2021/04/30 06:28:19;;;;;;;;;;;7.40;99.90;;;;;;10446495;28;19956;-73
2021/04/30 06:33:20;;;;;;;;;;;7.40;99.90;;;;;;10449317;28;19981;-72
2021/04/30 06:38:21;;;;;;;;;;;7.80;99.90;;;;;;10449381;28;20027;-72
2021/04/30 06:43:23;;;;;;;;;;;8.20;99.90;;;;;;10448751;28;20012;-73
2021/04/30 06:48:24;;;;;;;;;;;8.20;99.90;;;;;;10447164;28;19924;-71
2021/04/30 06:53:25;;;;;;;;;;;7.90;99.90;;;;;;10434650;28;19947;-72
2021/04/30 06:58:27;;;;;;;;;;;8.00;99.90;;;;;;10445344;28;19963;-71
2021/04/30 07:03:29;;;;;;;;;;;8.10;99.90;;;;;;10457081;28;19968;-72
2021/04/30 07:08:32;;;;;;;;;;;8.40;99.90;;;;;;10445855;28;20002;-72
2021/04/30 07:13:37;;;;;;;;;;;8.60;99.90;;;;;;10445707;28;20381;-71
2021/04/30 07:18:38;;;;;;;;;;;8.80;99.90;;;;;;10444633;28;19925;-72
2021/04/30 07:23:40;;;;;;;;;;;8.70;99.90;;;;;;10445841;28;20015;-72
2021/04/30 07:28:41;;;;;;;;;;;8.80;99.90;;;;;;10444505;28;19929;-72
2021/04/30 07:33:48;;;;;;;;;;;8.70;99.90;;;;;;10446024;28;20026;-72
2021/04/30 07:38:49;;;;;;;;;;;8.60;99.90;;;;;;10446855;28;19948;-61
2021/04/30 07:43:51;;;;;;;;;;;8.80;99.90;;;;;;10444089;28;20363;-61
2021/04/30 07:48:52;;;;;;;;;;;8.70;99.90;;;;;;10458770;28;19959;-60
2021/04/30 07:53:53;;;;;;;;;;;8.80;99.90;;;;;;10445756;28;19978;-61
2021/04/30 07:58:55;;;;;;;;;;;9.30;99.90;;;;;;10443030;28;20020;-60
2021/04/30 08:03:56;;;;;;;;;;;9.40;99.90;;;;;;10444851;28;20008;-61
2021/04/30 08:08:57;;;;;;;;;;;9.60;99.90;;;;;;10443918;28;20024;-60
2021/04/30 08:13:59;;;;;;;;;;;9.70;99.50;;;;;;10444583;28;20013;-61
2021/04/30 08:19:00;;;;;;;;;;;9.60;99.70;;;;;;10444434;28;20019;-60
2021/04/30 08:24:02;;;;;;;;;;;9.90;99.40;;;;;;10443935;28;20346;-61
2021/04/30 08:29:04;;;;;;;;;;;10.10;97.20;;;;;;10444335;28;19987;-60
2021/04/30 08:34:05;;;;;;;;;;;10.10;97.10;;;;;;10444663;28;20015;-61
2021/04/30 08:39:09;;;;;;;;;;;10.00;97.70;;;;;;10444281;28;20023;-61
2021/04/30 08:44:10;;;;;;;;;;;10.10;97.90;;;;;;10443906;28;20011;-61
2021/04/30 08:49:12;;;;;;;;;;;10.00;96.90;;;;;;10444743;28;19929;-61
2021/04/30 08:54:16;;;;;;;;;;;9.70;97.10;;;;;;10444513;28;20015;-60
2021/04/30 08:59:20;;;;;;;;;;;9.90;98.20;;;;;;10444430;28;19929;-61
2021/04/30 09:04:21;;;;;;;;;;;9.90;98.10;;;;;;10444047;28;19971;-60
2021/04/30 09:09:22;;;;;;;;;;;10.00;97.70;;;;;;10442805;28;19931;-60
2021/04/30 09:14:32;;;;;;;;;;;10.00;97.30;;;;;;10450353;28;20007;-61
2021/04/30 09:19:38;;;;;;;;;;;10.10;97.20;;;;;;10449160;28;19925;-61
2021/04/30 09:24:41;;;;;;;;;;;10.00;96.90;;;;;;10451981;28;20011;-61
2021/04/30 09:29:42;;;;;;;;;;;9.90;97.30;;;;;;10451101;28;20023;-60
2021/04/30 09:34:44;;;;;;;;;;;10.20;97.10;;;;;;10450846;28;20209;-61
2021/04/30 09:39:49;;;;;;;;;;;10.80;95.50;;;;;;10451358;28;19975;-60
2021/04/30 09:44:56;;;;;;;;;;;10.90;93.80;;;;;;10449690;28;19929;-61
2021/04/30 09:50:02;;;;;;;;;;;11.00;92.80;;;;;;10424651;28;20417;-61
2021/04/30 09:55:06;;;;;;;;;;;11.00;91.40;;;;;;10411883;28;20016;-60
2021/04/30 10:00:11;;;;;;;;;;;10.90;91.90;;;;;;10415824;28;20019;-60
2021/04/30 10:05:13;;;;;;;;;;;11.00;91.70;;;;;;10449779;28;19935;-61
2021/04/30 10:10:36;;;;;;;;;;;11.20;91.30;;;;;;10449803;28;20373;-61
2021/04/30 10:15:38;;;;;;;;;;;10.90;91.40;;;;;;10448553;28;19925;-60
2021/04/30 10:20:47;;;;;;;;;;;11.30;91.90;;;;;;10448893;28;19924;-60
2021/04/30 10:25:49;;;;;;;;;;;11.80;90.40;;;;;;10448550;28;20019;-60
2021/04/30 10:31:09;;;;;;;;;;;12.40;86.20;;;;;;10448471;28;20023;-61
2021/04/30 10:36:29;;;;;;;;;;;12.90;82.20;;;;;;10447575;28;19933;-60
2021/04/30 10:41:32;;;;;;;;;;;13.10;80.20;;;;;;10448276;28;20028;-61
2021/04/30 10:46:33;;;;;;;;;;;13.50;76.30;;;;;;10447204;28;19947;-61
2021/04/30 10:51:36;;;;;;;;;;;13.40;71.70;;;;;;10448485;28;19980;-61
2021/04/30 10:56:38;;;;;;;;;;;13.10;73.60;;;;;;10447249;28;19928;-61
2021/04/30 11:01:47;;;;;;;;;;;13.40;72.10;;;;;;10446714;28;19925;-61
2021/04/30 11:06:51;;;;;;;;;;;13.50;72.70;;;;;;10446645;28;20716;-61
2021/04/30 11:11:52;;;;;;;;;;;13.80;68.80;;;;;;10443962;28;19971;-61
2021/04/30 11:16:54;;;;;;;;;;;13.60;69.70;;;;;;10446635;28;19975;-61
2021/04/30 11:21:57;;;;;;;;;;;14.10;68.60;;;;;;10447956;28;19932;-61
2021/04/30 11:27:17;;;;;;;;;;;14.10;66.80;;;;;;10446352;28;19964;-61
2021/04/30 11:32:25;;;;;;;;;;;13.60;65.50;;;;;;10446463;28;19928;-61
2021/04/30 11:37:27;;;;;;;;;;;13.10;66.40;;;;;;10445519;28;19964;-60
2021/04/30 11:42:37;;;;;;;;;;;13.50;67.90;;;;;;10445516;28;19958;-60
2021/04/30 11:47:39;;;;;;;;;;;13.70;64.00;;;;;;10445635;28;19956;-60
2021/04/30 11:52:46;;;;;;;;;;;13.70;63.30;;;;;;10445612;28;20331;-61
2021/04/30 11:57:52;;;;;;;;;;;14.20;63.50;;;;;;10445099;28;20361;-61
2021/04/30 12:03:07;;;;;;;;;;;13.80;64.00;;;;;;10443992;28;20365;-61
2021/04/30 12:08:09;;;;;;;;;;;13.60;63.30;;;;;;10445624;28;20297;-60
2021/04/30 12:13:17;;;;;;;;;;;13.70;67.40;;;;;;10444591;28;20020;-61
2021/04/30 12:18:20;;;;;;;;;;;14.00;66.10;;;;;;10445882;28;19928;-61
2021/04/30 12:23:21;;;;;;;;;;;14.40;64.50;;;;;;10444617;28;20286;-61
2021/04/30 12:28:22;;;;;;;;;;;14.80;59.70;;;;;;10444965;28;20027;-61
2021/04/30 12:33:29;;;;;;;;;;;14.00;60.20;;;;;;10445083;28;20007;-61
2021/04/30 12:38:32;;;;;;;;;;;14.10;60.50;;;;;;10444406;28;19948;-61
2021/04/30 12:43:35;;;;;;;;;;;14.80;59.10;;;;;;10443141;28;19925;-61
2021/04/30 12:48:36;;;;;;;;;;;14.80;58.10;;;;;;10451930;28;20027;-61
2021/04/30 12:53:42;;;;;;;;;;;14.50;58.40;;;;;;10451526;28;20341;-61
2021/04/30 12:58:43;;;;;;;;;;;13.80;59.40;;;;;;10451803;28;20024;-61
2021/04/30 13:03:45;;;;;;;;;;;14.00;59.40;;;;;;10451698;28;20039;-61
2021/04/30 13:08:46;;;;;;;;;;;14.00;59.00;;;;;;10451377;28;19929;-61
2021/04/30 13:14:17;;;;;;;;;;;14.40;56.40;;;;;;10451488;28;19925;-61
2021/04/30 13:19:22;;;;;;;;;;;14.40;55.90;;;;;;10442171;28;19964;-61
2021/04/30 13:24:25;;;;;;;;;;;14.40;57.60;;;;;;10451475;28;19950;-61
2021/04/30 13:29:27;;;;;;;;;;;14.10;57.20;;;;;;10450861;28;20016;-61
2021/04/30 13:34:37;;;;;;;;;;;14.10;56.70;;;;;;10450164;28;19948;-61
2021/04/30 13:39:39;;;;;;;;;;;13.90;56.10;;;;;;10449368;28;19925;-61
2021/04/30 13:44:45;;;;;;;;;;;13.90;56.40;;;;;;10450183;28;19994;-61
2021/04/30 13:49:53;;;;;;;;;;;14.30;57.20;;;;;;10450811;28;19925;-60
2021/04/30 13:54:55;;;;;;;;;;;14.70;55.90;;;;;;10450026;28;20329;-61
2021/04/30 13:59:56;;;;;;;;;;;14.70;54.70;;;;;;10448674;28;19975;-61
2021/04/30 14:04:58;;;;;;;;;;;14.50;55.40;;;;;;10449604;28;19928;-61
2021/04/30 14:09:59;;;;;;;;;;;14.20;55.10;;;;;;10449521;28;20233;-61
2021/04/30 14:15:01;;;;;;;;;;;13.90;55.40;;;;;;10441384;28;19982;-61
2021/04/30 14:20:03;;;;;;;;;;;14.10;54.60;;;;;;10457415;28;19971;-61
2021/04/30 14:25:05;;;;;;;;;;;14.30;53.80;;;;;;10469535;28;20384;-61
2021/04/30 14:30:06;;;;;;;;;;;14.60;53.40;;;;;;10454278;28;19929;-61
2021/04/30 14:35:08;;;;;;;;;;;14.30;54.00;;;;;;10477816;28;19978;-61
2021/04/30 14:40:09;;;;;;;;;;;14.10;55.40;;;;;;10448372;28;20402;-61
2021/04/30 14:45:11;;;;;;;;;;;14.30;54.10;;;;;;10446753;28;20027;-61
2021/04/30 14:50:12;;;;;;;;;;;14.30;53.60;;;;;;10466134;28;19950;-60
2021/04/30 14:55:13;;;;;;;;;;;14.00;54.20;;;;;;10473045;28;20432;-61
2021/04/30 15:00:16;;;;;;;;;;;13.60;54.60;;;;;;10460461;28;20043;-61
2021/04/30 15:05:21;;;;;;;;;;;13.70;54.30;;;;;;10460330;28;19935;-61
2021/04/30 15:10:22;;;;;;;;;;;13.50;55.80;;;;;;10444142;28;20578;-61
2021/04/30 15:15:25;;;;;;;;;;;13.70;55.20;;;;;;10445072;28;19947;-61
2021/04/30 15:20:27;;;;;;;;;;;13.80;55.20;;;;;;10444061;28;20029;-61
2021/04/30 15:25:28;;;;;;;;;;;13.60;54.30;;;;;;10477029;28;19928;-60
2021/04/30 15:30:30;;;;;;;;;;;13.70;54.10;;;;;;10485941;28;20015;-61
2021/04/30 15:35:32;;;;;;;;;;;13.50;52.60;;;;;;10462268;28;20383;-61
2021/04/30 15:40:33;;;;;;;;;;;13.40;53.80;;;;;;10445467;28;20399;-61
2021/04/30 15:45:34;;;;;;;;;;;13.70;53.80;;;;;;10459797;28;20393;-61
2021/04/30 15:50:36;;;;;;;;;;;13.80;53.90;;;;;;10418541;28;19929;-61
2021/04/30 15:55:37;;;;;;;;;;;14.00;53.40;;;;;;10464658;28;19925;-61
2021/04/30 16:00:39;;;;;;;;;;;13.80;53.80;;;;;;10443486;28;20039;-61
2021/04/30 16:05:40;;;;;;;;;;;13.70;54.10;;;;;;10444900;28;20043;-61
2021/04/30 16:10:41;;;;;;;;;;;13.50;53.70;;;;;;10445317;28;19932;-61
2021/04/30 16:15:42;;;;;;;;;;;13.60;53.90;;;;;;10444096;28;20024;-61
2021/04/30 16:20:44;;;;;;;;;;;13.50;53.90;;;;;;10446793;28;19928;-61
2021/04/30 16:25:46;;;;;;;;;;;13.40;53.40;;;;;;10453199;28;20032;-61
2021/04/30 16:30:47;;;;;;;;;;;13.30;56.70;;;;;;10471211;28;20011;-60
2021/04/30 16:35:48;;;;;;;;;;;13.20;57.90;;;;;;10493978;28;19932;-61
2021/04/30 16:40:50;;;;;;;;;;;13.20;58.60;;;;;;10481639;28;19925;-61
2021/04/30 16:46:10;;;;;;;;;;;12.70;59.70;;;;;;10488432;28;19929;-60
2021/04/30 16:51:13;;;;;;;;;;;12.70;61.10;;;;;;10492909;28;19974;-61
2021/04/30 16:56:17;;;;;;;;;;;12.60;61.70;;;;;;10476069;28;19931;-61
2021/04/30 17:01:19;;;;;;;;;;;12.50;63.00;;;;;;10449626;28;20024;-61
2021/04/30 17:06:21;;;;;;;;;;;12.40;64.40;;;;;;10451813;28;20356;-61
2021/04/30 17:11:22;;;;;;;;;;;12.30;64.20;;;;;;10450979;28;19968;-60
2021/04/30 17:16:24;;;;;;;;;;;12.30;65.00;;;;;;10450778;28;19929;-60
2021/04/30 17:21:25;;;;;;;;;;;12.40;63.90;;;;;;10450709;28;19932;-60
2021/04/30 17:26:27;;;;;;;;;;;12.20;63.70;;;;;;10450750;28;20055;-61
2021/04/30 17:31:28;;;;;;;;;;;12.30;64.90;;;;;;10449112;28;20003;-61
2021/04/30 17:36:29;;;;;;;;;;;12.40;65.00;;;;;;10476671;28;20012;-60
2021/04/30 17:41:30;;;;;;;;;;;12.40;65.00;;;;;;10456016;28;20453;-61
2021/04/30 17:46:32;;;;;;;;;;;12.10;64.30;;;;;;10450794;28;20016;-60
2021/04/30 17:51:35;;;;;;;;;;;11.90;66.40;;;;;;10449936;28;19924;-60
2021/04/30 17:56:37;;;;;;;;;;;11.70;67.20;;;;;;10449617;28;20364;-60
2021/04/30 18:01:38;;;;;;;;;;;11.60;68.40;;;;;;10449983;28;20031;-60
2021/04/30 18:06:42;;;;;;;;;;;11.50;69.10;;;;;;10449782;28;19975;-60
2021/04/30 18:11:44;;;;;;;;;;;11.40;70.80;;;;;;10447941;28;19925;-60
2021/04/30 18:16:45;;;;;;;;;;;11.30;71.90;;;;;;10450029;28;20365;-60
2021/04/30 18:21:47;;;;;;;;;;;11.30;73.20;;;;;;10449087;28;19936;-60
2021/04/30 18:26:48;;;;;;;;;;;11.30;73.20;;;;;;10448382;28;20023;-60
2021/04/30 18:31:50;;;;;;;;;;;11.20;73.70;;;;;;10449857;28;20039;-60
2021/04/30 18:36:52;;;;;;;;;;;11.10;74.80;;;;;;10449332;28;20433;-60
2021/04/30 18:41:53;;;;;;;;;;;11.00;75.30;;;;;;10447783;28;20343;-60
2021/04/30 18:46:55;;;;;;;;;;;11.00;76.00;;;;;;10448779;28;20015;-60
2021/04/30 18:51:56;;;;;;;;;;;11.00;77.70;;;;;;10448522;28;19931;-60
2021/04/30 18:56:57;;;;;;;;;;;10.90;78.20;;;;;;10446873;28;19947;-60
2021/04/30 19:02:00;;;;;;;;;;;10.80;79.40;;;;;;10448597;28;19924;-60
2021/04/30 19:07:01;;;;;;;;;;;10.70;82.10;;;;;;10448100;28;19932;-60
2021/04/30 19:12:03;;;;;;;;;;;10.70;81.80;;;;;;10447931;28;19924;-60
2021/04/30 19:17:05;;;;;;;;;;;10.70;82.90;;;;;;10448044;28;19936;-60
2021/04/30 19:22:07;;;;;;;;;;;10.70;84.10;;;;;;10447342;28;19929;-60
2021/04/30 19:27:10;;;;;;;;;;;10.80;84.40;;;;;;10446948;28;19928;-60
2021/04/30 19:32:12;;;;;;;;;;;10.70;84.10;;;;;;10447386;28;19932;-60
2021/04/30 19:37:14;;;;;;;;;;;10.50;85.70;;;;;;10445850;28;19929;-60
2021/04/30 19:42:15;;;;;;;;;;;10.50;87.40;;;;;;10447145;28;20023;-60
2021/04/30 19:47:16;;;;;;;;;;;10.50;87.60;;;;;;10446523;28;20376;-60
2021/04/30 19:52:17;;;;;;;;;;;10.60;90.00;;;;;;10446077;28;20369;-60
2021/04/30 19:57:19;;;;;;;;;;;10.50;89.70;;;;;;10445698;28;20015;-60
2021/04/30 20:02:20;;;;;;;;;;;10.50;90.10;;;;;;10446944;28;20019;-61
2021/04/30 20:07:26;;;;;;;;;;;10.60;90.10;;;;;;10445278;28;20336;-60
2021/04/30 20:12:28;;;;;;;;;;;10.60;90.70;;;;;;10446250;28;20003;-61
2021/04/30 20:17:29;;;;;;;;;;;10.40;91.30;;;;;;10446695;28;19935;-60
2021/04/30 20:22:33;;;;;;;;;;;10.20;92.50;;;;;;10445216;28;20389;-60
2021/04/30 20:27:35;;;;;;;;;;;10.20;93.70;;;;;;10445986;28;19943;-60
2021/04/30 20:32:37;;;;;;;;;;;10.20;94.60;;;;;;10445369;28;20267;-60
2021/04/30 20:37:41;;;;;;;;;;;10.20;93.50;;;;;;10443764;28;19924;-60
2021/04/30 20:42:43;;;;;;;;;;;10.10;94.00;;;;;;10445580;28;19933;-60
2021/04/30 20:47:45;;;;;;;;;;;10.10;95.00;;;;;;10445256;28;19959;-60
2021/04/30 20:52:47;;;;;;;;;;;10.20;96.20;;;;;;10444510;28;20016;-61
2021/04/30 20:57:48;;;;;;;;;;;10.20;96.70;;;;;;10445264;28;19972;-61
2021/04/30 21:02:49;;;;;;;;;;;10.20;96.90;;;;;;10444756;28;20006;-60
2021/04/30 21:07:50;;;;;;;;;;;10.30;97.40;;;;;;10445753;28;20007;-68
2021/04/30 21:18:12;;;;;;;;;;;10.30;97.20;;;;;;10436802;28;20450;-69
2021/04/30 21:23:13;;;;;;;;;;;10.30;98.00;;;;;;10447240;28;20396;-69
2021/04/30 21:28:15;;;;;;;;;;;10.20;98.40;;;;;;10451889;28;19949;-69
2021/04/30 21:33:16;;;;;;;;;;;10.20;99.90;;;;;;10450734;28;20361;-68
2021/04/30 21:38:20;;;;;;;;;;;10.10;99.90;;;;;;10451002;28;19932;-69
2021/04/30 21:43:21;;;;;;;;;;;10.10;99.90;;;;;;10451016;28;19939;-69
2021/04/30 21:48:22;;;;;;;;;;;10.10;99.90;;;;;;10449573;28;19929;-68
2021/04/30 21:53:23;;;;;;;;;;;10.10;99.90;;;;;;10449012;28;19935;-68
2021/04/30 21:58:27;;;;;;;;;;;10.00;99.90;;;;;;10435608;28;19954;-68
2021/04/30 22:03:28;;;;;;;;;;;9.90;99.90;;;;;;10449969;28;20019;-68
2021/04/30 22:08:30;;;;;;;;;;;9.90;99.90;;;;;;10440461;28;19929;-68
2021/04/30 22:13:31;;;;;;;;;;;9.80;99.90;;;;;;10449817;28;20019;-68
2021/04/30 22:18:33;;;;;;;;;;;9.50;99.90;;;;;;10449376;28;19932;-68
2021/04/30 22:23:34;;;;;;;;;;;9.50;99.90;;;;;;10448020;28;19924;-68
2021/04/30 22:28:36;;;;;;;;;;;9.40;99.90;;;;;;10448374;28;20040;-69
2021/04/30 22:33:37;;;;;;;;;;;9.60;99.90;;;;;;10446492;28;20432;-68
2021/04/30 22:38:39;;;;;;;;;;;9.60;99.90;;;;;;10447543;28;20418;-68
2021/04/30 22:43:40;;;;;;;;;;;9.50;99.90;;;;;;10447771;28;20023;-68
2021/04/30 22:48:42;;;;;;;;;;;9.50;99.90;;;;;;10447662;28;19975;-68
2021/04/30 22:53:43;;;;;;;;;;;9.30;99.90;;;;;;10447122;28;20027;-68
2021/04/30 22:58:44;;;;;;;;;;;9.40;99.90;;;;;;10446624;28;19924;-68
2021/04/30 23:03:45;;;;;;;;;;;9.50;99.90;;;;;;10446648;28;19947;-68
2021/04/30 23:08:47;;;;;;;;;;;9.60;99.90;;;;;;10446488;28;19924;-68
2021/04/30 23:13:48;;;;;;;;;;;9.60;99.90;;;;;;10445725;28;19967;-68
2021/04/30 23:18:49;;;;;;;;;;;9.60;99.90;;;;;;10445681;28;20380;-68
2021/04/30 23:23:51;;;;;;;;;;;9.50;99.90;;;;;;10446621;28;19968;-68
2021/04/30 23:28:52;;;;;;;;;;;9.40;99.90;;;;;;10445436;28;20270;-68
2021/04/30 23:33:53;;;;;;;;;;;9.30;99.90;;;;;;10444587;28;19925;-69
2021/04/30 23:38:55;;;;;;;;;;;9.30;99.90;;;;;;10445872;28;19968;-69
2021/04/30 23:43:56;;;;;;;;;;;9.30;99.90;;;;;;10444642;28;19972;-68
2021/04/30 23:48:57;;;;;;;;;;;9.30;99.90;;;;;;10445752;28;20007;-68
2021/04/30 23:53:59;;;;;;;;;;;9.20;99.90;;;;;;10445615;28;20016;-69
2021/04/30 23:59:00;;;;;;;;;;;9.20;99.90;;;;;;10445730;28;19951;-68
